Time;durP1;ratioP1;P1;durP2;ratioP2;P2;SDS_P1;SDS_P2;PMS_P1;PMS_P2;Temp;Humidity;BMP_temperature;BMP_pressure;BME280_temperature;BME280_humidity;BME280_pressure;Samples;Min_cycle;Max_cycle;Signal;HPM_P1;HPM_P2
2023/09/22 00:01:00;;;;;;;0.75;0.68;;;;;;;;;;5121600;28;20209;-68
2023/09/22 00:03:29;;;;;;;0.60;0.60;;;;;;;;;;5121357;28;20203;-68
2023/09/22 00:05:57;;;;;;;0.80;0.70;;;;;;;;;;5122047;28;20297;-68
2023/09/22 00:08:24;;;;;;;0.73;0.45;;;;;;;;;;5121436;28;20599;-68
2023/09/22 00:10:52;;;;;;;0.70;0.70;;;;;;;;;;5121773;28;20202;-68
2023/09/22 00:13:20;;;;;;;0.30;0.30;;;;;;;;;;5121481;28;20305;-68
2023/09/22 00:15:49;;;;;;;0.95;0.63;;;;;;;;;;5121425;28;20295;-68
2023/09/22 00:18:17;;;;;;;0.70;0.50;;;;;;;;;;5121438;28;20207;-68
2023/09/22 00:20:45;;;;;;;0.60;0.50;;;;;;;;;;5121181;28;20203;-68
2023/09/22 00:23:14;;;;;;;0.55;0.55;;;;;;;;;;5121623;28;20199;-68
2023/09/22 00:25:42;;;;;;;0.60;0.50;;;;;;;;;;5121391;28;20210;-68
2023/09/22 00:28:10;;;;;;;0.40;0.40;;;;;;;;;;5121404;28;20203;-68
2023/09/22 00:30:38;;;;;;;0.50;0.50;;;;;;;;;;5121440;28;20485;-68
2023/09/22 00:33:07;;;;;;;0.40;0.40;;;;;;;;;;5121308;28;20235;-67
2023/09/22 00:35:34;;;;;;;0.50;0.47;;;;;;;;;;5121260;28;20203;-68
2023/09/22 00:38:02;;;;;;;0.45;0.45;;;;;;;;;;5120933;28;20455;-68
2023/09/22 00:40:29;;;;;;;0.82;0.30;;;;;;;;;;5120761;28;20203;-68
2023/09/22 00:43:10;;;;;;;0.60;0.50;;;;;;;;;;5120296;28;20206;-67
2023/09/22 00:45:42;;;;;;;0.47;0.47;;;;;;;;;;5120939;28;20209;-68
2023/09/22 00:48:11;;;;;;;0.40;0.30;;;;;;;;;;5120923;28;20210;-68
2023/09/22 00:50:39;;;;;;;1.33;0.40;;;;;;;;;;5121036;28;20236;-68
2023/09/22 00:53:07;;;;;;;0.35;0.30;;;;;;;;;;5120527;28;20226;-68
2023/09/22 00:55:35;;;;;;;1.00;0.40;;;;;;;;;;5120931;28;20627;-68
2023/09/22 00:58:03;;;;;;;0.30;0.30;;;;;;;;;;5120598;28;20221;-68
2023/09/22 01:00:31;;;;;;;1.77;0.30;;;;;;;;;;5120468;28;20215;-68
2023/09/22 01:02:59;;;;;;;0.28;0.20;;;;;;;;;;5120539;28;20217;-68
2023/09/22 01:05:28;;;;;;;0.45;0.40;;;;;;;;;;5120545;28;20276;-68
2023/09/22 01:07:55;;;;;;;0.40;0.30;;;;;;;;;;5120456;28;20226;-68
2023/09/22 01:10:23;;;;;;;0.85;0.30;;;;;;;;;;5120374;28;20547;-68
2023/09/22 01:12:53;;;;;;;0.70;0.40;;;;;;;;;;5120300;28;20235;-68
2023/09/22 01:15:20;;;;;;;0.30;0.30;;;;;;;;;;5120243;28;20203;-68
2023/09/22 01:17:48;;;;;;;0.47;0.30;;;;;;;;;;5120688;28;20203;-68
2023/09/22 01:20:17;;;;;;;0.77;0.50;;;;;;;;;;5120376;28;20489;-68
2023/09/22 01:22:46;;;;;;;0.80;0.40;;;;;;;;;;5120048;28;20199;-68
2023/09/22 01:25:14;;;;;;;0.40;0.25;;;;;;;;;;5120326;28;20211;-68
2023/09/22 01:27:42;;;;;;;0.80;0.30;;;;;;;;;;5119928;28;20721;-68
2023/09/22 01:30:10;;;;;;;0.43;0.30;;;;;;;;;;5119264;28;20211;-68
2023/09/22 01:32:38;;;;;;;0.55;0.20;;;;;;;;;;5119941;28;20227;-68
2023/09/22 01:35:07;;;;;;;1.02;0.40;;;;;;;;;;5120448;28;20203;-68
2023/09/22 01:37:38;;;;;;;0.60;0.30;;;;;;;;;;5119566;28;20203;-68
2023/09/22 01:40:08;;;;;;;1.05;0.30;;;;;;;;;;5119872;28;20258;-68
2023/09/22 01:42:35;;;;;;;0.57;0.40;;;;;;;;;;5119707;28;20286;-68
2023/09/22 01:45:04;;;;;;;1.20;0.30;;;;;;;;;;5119817;28;20230;-68
2023/09/22 01:47:33;;;;;;;0.63;0.30;;;;;;;;;;5119734;28;20264;-68
2023/09/22 01:50:01;;;;;;;0.40;0.30;;;;;;;;;;5119801;28;20203;-68
2023/09/22 01:52:29;;;;;;;0.57;0.30;;;;;;;;;;5119535;28;20248;-68
2023/09/22 01:54:56;;;;;;;0.65;0.30;;;;;;;;;;5118663;28;20479;-68
2023/09/22 01:57:25;;;;;;;0.45;0.40;;;;;;;;;;5119326;28;20214;-68
2023/09/22 01:59:53;;;;;;;0.95;0.40;;;;;;;;;;5119461;28;20472;-68
2023/09/22 02:02:20;;;;;;;0.55;0.40;;;;;;;;;;5119385;28;20199;-68
2023/09/22 02:04:48;;;;;;;0.30;0.30;;;;;;;;;;5119185;28;20203;-68
2023/09/22 02:07:17;;;;;;;0.35;0.35;;;;;;;;;;5119338;28;20264;-68
2023/09/22 02:09:46;;;;;;;0.40;0.40;;;;;;;;;;5118930;28;20214;-68
2023/09/22 02:12:13;;;;;;;0.63;0.40;;;;;;;;;;5118869;28;20237;-68
2023/09/22 02:14:42;;;;;;;0.50;0.40;;;;;;;;;;5119341;28;20479;-68
2023/09/22 02:17:10;;;;;;;0.47;0.40;;;;;;;;;;5119114;28;20216;-68
2023/09/22 02:19:39;;;;;;;0.70;0.60;;;;;;;;;;5119072;28;20230;-68
2023/09/22 02:22:06;;;;;;;0.93;0.38;;;;;;;;;;5119047;28;20624;-68
2023/09/22 02:24:34;;;;;;;1.30;0.40;;;;;;;;;;5119121;28;20206;-68
2023/09/22 02:27:02;;;;;;;0.80;0.60;;;;;;;;;;5119034;28;20210;-68
2023/09/22 02:29:29;;;;;;;0.40;0.40;;;;;;;;;;5118792;28;20203;-68
2023/09/22 02:31:58;;;;;;;0.50;0.40;;;;;;;;;;5118957;28;20198;-68
2023/09/22 02:34:26;;;;;;;0.57;0.30;;;;;;;;;;5118923;28;20256;-68
2023/09/22 02:36:55;;;;;;;0.60;0.40;;;;;;;;;;5118675;28;20241;-68
2023/09/22 02:39:23;;;;;;;1.77;0.40;;;;;;;;;;5118697;28;20230;-68
2023/09/22 02:41:50;;;;;;;2.72;0.50;;;;;;;;;;5118557;28;20286;-68
2023/09/22 02:44:18;;;;;;;0.70;0.30;;;;;;;;;;5118720;28;20393;-70
2023/09/22 02:46:46;;;;;;;0.32;0.32;;;;;;;;;;5118119;28;20203;-68
2023/09/22 02:49:15;;;;;;;0.40;0.30;;;;;;;;;;5117867;28;20210;-68
2023/09/22 02:51:42;;;;;;;1.30;0.40;;;;;;;;;;5118252;28;20205;-68
2023/09/22 02:54:10;;;;;;;0.57;0.50;;;;;;;;;;5118436;28;20226;-68
2023/09/22 02:56:37;;;;;;;0.28;0.28;;;;;;;;;;5118020;28;20225;-68
2023/09/22 02:59:05;;;;;;;0.35;0.20;;;;;;;;;;5118139;28;20555;-68
2023/09/22 03:01:33;;;;;;;0.40;0.30;;;;;;;;;;5117904;28;20404;-68
2023/09/22 03:04:01;;;;;;;0.43;0.30;;;;;;;;;;5118316;28;20557;-68
2023/09/22 03:06:30;;;;;;;0.68;0.30;;;;;;;;;;5117606;28;20290;-68
2023/09/22 03:08:57;;;;;;;0.50;0.40;;;;;;;;;;5117866;28;20211;-68
2023/09/22 03:11:25;;;;;;;0.40;0.40;;;;;;;;;;5117753;28;20203;-68
2023/09/22 03:13:52;;;;;;;0.60;0.40;;;;;;;;;;5117987;28;20291;-68
2023/09/22 03:16:20;;;;;;;0.85;0.38;;;;;;;;;;5117814;28;20203;-68
2023/09/22 03:18:49;;;;;;;0.45;0.35;;;;;;;;;;5117605;28;20203;-68
2023/09/22 03:21:20;;;;;;;0.47;0.43;;;;;;;;;;5118135;28;20214;-68
2023/09/22 03:23:49;;;;;;;0.60;0.30;;;;;;;;;;5117483;28;20577;-68
2023/09/22 03:26:17;;;;;;;0.52;0.40;;;;;;;;;;5117514;28;20297;-68
2023/09/22 03:28:45;;;;;;;0.40;0.30;;;;;;;;;;5118042;28;20343;-68
2023/09/22 03:31:13;;;;;;;0.55;0.30;;;;;;;;;;5117788;28;20210;-68
2023/09/22 03:33:41;;;;;;;0.60;0.22;;;;;;;;;;5117971;28;20227;-68
2023/09/22 03:36:10;;;;;;;0.50;0.40;;;;;;;;;;5117577;28;20623;-68
2023/09/22 03:38:38;;;;;;;0.40;0.30;;;;;;;;;;5117798;28;20628;-68
2023/09/22 03:41:07;;;;;;;1.05;0.38;;;;;;;;;;5117558;28;20203;-68
2023/09/22 03:43:35;;;;;;;1.02;0.30;;;;;;;;;;5117909;28;20207;-68
2023/09/22 03:46:03;;;;;;;0.30;0.30;;;;;;;;;;5117672;28;20207;-68
2023/09/22 03:48:31;;;;;;;0.40;0.40;;;;;;;;;;5117424;28;20275;-68
2023/09/22 03:50:58;;;;;;;0.40;0.40;;;;;;;;;;5117407;28;20203;-68
2023/09/22 03:53:27;;;;;;;0.40;0.40;;;;;;;;;;5117274;28;20244;-68
2023/09/22 03:55:55;;;;;;;0.50;0.40;;;;;;;;;;5117808;28;20453;-68
2023/09/22 03:58:24;;;;;;;0.82;0.40;;;;;;;;;;5117507;28;20214;-68
2023/09/22 04:00:53;;;;;;;0.40;0.30;;;;;;;;;;5117187;28;20483;-68
2023/09/22 04:03:20;;;;;;;0.50;0.35;;;;;;;;;;5117345;28;20206;-69
2023/09/22 04:05:48;;;;;;;0.35;0.35;;;;;;;;;;5116982;28;20207;-68
2023/09/22 04:08:16;;;;;;;0.68;0.32;;;;;;;;;;5117103;28;20596;-68
2023/09/22 04:10:44;;;;;;;0.52;0.40;;;;;;;;;;5117418;28;20211;-68
2023/09/22 04:13:12;;;;;;;0.55;0.47;;;;;;;;;;5116982;28;20281;-68
2023/09/22 04:15:41;;;;;;;0.77;0.38;;;;;;;;;;5117307;28;20294;-68
2023/09/22 04:18:08;;;;;;;1.75;0.70;;;;;;;;;;5118290;28;20203;-67
2023/09/22 04:20:37;;;;;;;0.40;0.40;;;;;;;;;;5120911;28;20207;-68
2023/09/22 04:23:05;;;;;;;2.17;0.60;;;;;;;;;;5119909;28;20199;-68
2023/09/22 04:25:34;;;;;;;0.40;0.40;;;;;;;;;;5120210;28;20202;-68
2023/09/22 04:28:08;;;;;;;0.63;0.52;;;;;;;;;;5119669;28;20641;-69
2023/09/22 04:30:36;;;;;;;1.08;0.40;;;;;;;;;;5120225;28;20204;-68
2023/09/22 04:33:06;;;;;;;1.10;0.50;;;;;;;;;;5119963;28;20246;-68
2023/09/22 04:35:33;;;;;;;0.60;0.43;;;;;;;;;;5120204;28;20219;-68
2023/09/22 04:38:02;;;;;;;0.70;0.50;;;;;;;;;;5119740;28;20211;-68
2023/09/22 04:40:35;;;;;;;1.58;0.50;;;;;;;;;;5119772;28;20203;-68
2023/09/22 04:43:05;;;;;;;1.58;0.60;;;;;;;;;;5119968;28;20301;-68
2023/09/22 04:45:32;;;;;;;0.60;0.50;;;;;;;;;;5119458;28;20203;-68
2023/09/22 04:48:00;;;;;;;0.93;0.40;;;;;;;;;;5119113;28;20509;-69
2023/09/22 04:50:28;;;;;;;0.52;0.40;;;;;;;;;;5118438;28;20303;-68
2023/09/22 04:52:56;;;;;;;0.70;0.57;;;;;;;;;;5118397;28;20237;-68
2023/09/22 04:55:23;;;;;;;0.80;0.60;;;;;;;;;;5118581;28;20248;-67
2023/09/22 04:57:51;;;;;;;0.70;0.40;;;;;;;;;;5118574;28;20277;-68
2023/09/22 05:00:21;;;;;;;1.38;0.50;;;;;;;;;;5118412;28;20238;-68
2023/09/22 05:02:49;;;;;;;1.10;0.50;;;;;;;;;;5118072;28;20202;-68
2023/09/22 05:05:18;;;;;;;0.88;0.50;;;;;;;;;;5116997;28;20203;-68
2023/09/22 05:07:47;;;;;;;0.70;0.50;;;;;;;;;;5117210;28;20199;-68
2023/09/22 05:10:15;;;;;;;1.20;0.75;;;;;;;;;;5117069;28;20211;-68
2023/09/22 05:12:42;;;;;;;0.68;0.60;;;;;;;;;;5117820;28;20291;-68
2023/09/22 05:15:10;;;;;;;0.50;0.40;;;;;;;;;;5118238;28;20306;-68
2023/09/22 05:17:37;;;;;;;1.27;0.60;;;;;;;;;;5117576;28;20194;-68
2023/09/22 05:20:12;;;;;;;1.20;0.52;;;;;;;;;;5116420;28;20743;-68
2023/09/22 05:22:42;;;;;;;0.40;0.40;;;;;;;;;;5115517;28;20661;-68
2023/09/22 05:25:12;;;;;;;1.40;0.60;;;;;;;;;;5116335;28;20199;-67
2023/09/22 05:27:42;;;;;;;0.50;0.43;;;;;;;;;;5116425;28;20201;-68
2023/09/22 05:30:10;;;;;;;0.65;0.40;;;;;;;;;;5116308;28;20538;-68
2023/09/22 05:32:39;;;;;;;1.52;0.60;;;;;;;;;;5117164;28;20210;-68
2023/09/22 05:35:06;;;;;;;0.95;0.50;;;;;;;;;;5117134;28;20238;-68
2023/09/22 05:37:34;;;;;;;0.82;0.60;;;;;;;;;;5117235;28;20213;-68
2023/09/22 05:40:11;;;;;;;0.60;0.60;;;;;;;;;;5116140;28;20205;-68
2023/09/22 05:42:42;;;;;;;1.17;0.75;;;;;;;;;;5116492;28;20583;-68
2023/09/22 05:45:11;;;;;;;0.60;0.60;;;;;;;;;;5116315;28;20294;-68
2023/09/22 05:47:38;;;;;;;0.70;0.50;;;;;;;;;;5116136;28;20203;-68
2023/09/22 05:50:07;;;;;;;0.68;0.68;;;;;;;;;;5116069;28;20202;-68
2023/09/22 05:52:34;;;;;;;0.60;0.60;;;;;;;;;;5116833;28;20203;-67
2023/09/22 05:55:02;;;;;;;1.55;0.73;;;;;;;;;;5116681;28;20227;-68
2023/09/22 05:57:29;;;;;;;2.03;0.80;;;;;;;;;;5117660;28;20203;-67
2023/09/22 05:59:58;;;;;;;0.77;0.60;;;;;;;;;;5115710;28;20217;-68
2023/09/22 06:02:26;;;;;;;1.63;0.65;;;;;;;;;;5116224;28;20206;-68
2023/09/22 06:04:55;;;;;;;2.05;0.68;;;;;;;;;;5115371;28;20692;-68
2023/09/22 06:07:22;;;;;;;1.17;0.60;;;;;;;;;;5117182;28;20203;-68
2023/09/22 06:09:50;;;;;;;1.60;0.80;;;;;;;;;;5116592;28;20549;-67
2023/09/22 06:12:18;;;;;;;0.80;0.65;;;;;;;;;;5115571;28;20201;-67
2023/09/22 06:14:45;;;;;;;1.38;0.70;;;;;;;;;;5116326;28;20339;-68
2023/09/22 06:17:14;;;;;;;1.23;0.60;;;;;;;;;;5116403;28;20229;-68
2023/09/22 06:19:41;;;;;;;0.85;0.63;;;;;;;;;;5116806;28;20203;-68
2023/09/22 06:22:10;;;;;;;1.70;0.70;;;;;;;;;;5117022;28;20211;-68
2023/09/22 06:24:38;;;;;;;1.13;0.60;;;;;;;;;;5116882;28;20194;-68
2023/09/22 06:27:05;;;;;;;1.50;0.70;;;;;;;;;;5117392;28;20214;-68
2023/09/22 06:29:32;;;;;;;1.30;0.70;;;;;;;;;;5116642;28;20306;-68
2023/09/22 06:32:00;;;;;;;1.70;0.70;;;;;;;;;;5116648;28;20373;-68
2023/09/22 06:34:29;;;;;;;1.00;0.77;;;;;;;;;;5116611;28;20695;-68
2023/09/22 06:36:56;;;;;;;0.90;0.60;;;;;;;;;;5116381;28;20243;-68
2023/09/22 06:39:24;;;;;;;0.80;0.80;;;;;;;;;;5117051;28;20664;-67
2023/09/22 06:41:51;;;;;;;2.08;0.77;;;;;;;;;;5114815;28;20213;-68
2023/09/22 06:44:19;;;;;;;0.75;0.70;;;;;;;;;;5116006;28;20518;-68
2023/09/22 06:46:46;;;;;;;1.65;0.80;;;;;;;;;;5115717;28;20203;-68
2023/09/22 06:49:15;;;;;;;1.30;0.88;;;;;;;;;;5116713;28;20551;-67
2023/09/22 06:51:45;;;;;;;0.82;0.65;;;;;;;;;;5117376;28;20210;-68
2023/09/22 06:54:12;;;;;;;0.80;0.70;;;;;;;;;;5116354;28;20638;-67
2023/09/22 06:56:40;;;;;;;1.00;0.90;;;;;;;;;;5116498;28;20293;-67
2023/09/22 06:59:07;;;;;;;0.80;0.70;;;;;;;;;;5116178;28;20203;-68
2023/09/22 07:01:35;;;;;;;1.60;0.80;;;;;;;;;;5115774;28;20581;-68
2023/09/22 07:04:03;;;;;;;2.08;0.93;;;;;;;;;;5116214;28;20285;-68
2023/09/22 07:06:33;;;;;;;1.00;0.88;;;;;;;;;;5115724;28;20540;-67
2023/09/22 07:09:02;;;;;;;0.75;0.70;;;;;;;;;;5116259;28;20207;-68
2023/09/22 07:11:30;;;;;;;2.05;0.80;;;;;;;;;;5116388;28;20203;-68
2023/09/22 07:13:57;;;;;;;2.05;0.70;;;;;;;;;;5115862;28;20249;-67
2023/09/22 07:16:25;;;;;;;1.23;0.80;;;;;;;;;;5116226;28;20337;-68
2023/09/22 07:18:53;;;;;;;0.73;0.73;;;;;;;;;;5116380;28;20213;-67
2023/09/22 07:21:21;;;;;;;1.58;0.85;;;;;;;;;;5115971;28;20252;-68
2023/09/22 07:23:49;;;;;;;1.58;0.90;;;;;;;;;;5116279;28;20264;-68
2023/09/22 07:26:17;;;;;;;1.23;0.80;;;;;;;;;;5116203;28;20241;-68
2023/09/22 07:28:45;;;;;;;0.70;0.70;;;;;;;;;;5116805;28;20234;-68
2023/09/22 07:31:13;;;;;;;0.75;0.75;;;;;;;;;;5116038;28;20253;-68
2023/09/22 07:33:40;;;;;;;1.23;0.75;;;;;;;;;;5115833;28;20516;-68
2023/09/22 07:36:08;;;;;;;0.98;0.70;;;;;;;;;;5115016;28;20198;-67
2023/09/22 07:38:36;;;;;;;1.00;0.82;;;;;;;;;;5116081;28;20221;-67
2023/09/22 07:41:03;;;;;;;0.98;0.80;;;;;;;;;;5116325;28;20210;-67
2023/09/22 07:43:33;;;;;;;1.08;0.80;;;;;;;;;;5115972;28;20249;-67
2023/09/22 07:46:05;;;;;;;1.45;0.80;;;;;;;;;;5115518;28;20195;-67
2023/09/22 07:48:33;;;;;;;1.13;0.70;;;;;;;;;;5115468;28;20234;-67
2023/09/22 07:51:01;;;;;;;1.15;0.80;;;;;;;;;;5115455;28;20241;-68
2023/09/22 07:53:28;;;;;;;1.10;1.00;;;;;;;;;;5117043;28;20296;-67
2023/09/22 07:55:59;;;;;;;0.85;0.82;;;;;;;;;;5119897;28;20239;-67
2023/09/22 07:58:26;;;;;;;1.67;0.80;;;;;;;;;;5119267;28;20203;-67
2023/09/22 08:00:58;;;;;;;1.25;0.80;;;;;;;;;;5119628;28;20203;-67
2023/09/22 08:03:27;;;;;;;0.80;0.80;;;;;;;;;;5119178;28;20202;-67
2023/09/22 08:05:54;;;;;;;0.80;0.80;;;;;;;;;;5119290;28;20206;-67
2023/09/22 08:08:21;;;;;;;2.08;0.90;;;;;;;;;;5119370;28;20201;-67
2023/09/22 08:10:49;;;;;;;1.15;0.75;;;;;;;;;;5118612;28;20246;-67
2023/09/22 08:13:17;;;;;;;0.90;0.75;;;;;;;;;;5119323;28;20790;-67
2023/09/22 08:59:13;;;;;;;1.77;0.90;;;;;;;;;;5092888;28;21180;-68
2023/09/22 09:01:41;;;;;;;0.93;0.80;;;;;;;;;;5092441;28;20302;-67
2023/09/22 09:04:27;;;;;;;1.50;0.90;;;;;;;;;;5092798;28;20282;-67
2023/09/22 09:06:54;;;;;;;1.88;0.77;;;;;;;;;;5092250;28;20611;-67
2023/09/22 09:09:22;;;;;;;1.55;0.85;;;;;;;;;;5092492;28;20291;-67
2023/09/22 09:11:59;;;;;;;1.27;0.60;;;;;;;;;;5092072;28;20246;-67
2023/09/22 09:14:29;;;;;;;2.58;1.10;;;;;;;;;;5092959;28;20611;-67
2023/09/22 09:16:57;;;;;;;1.30;0.98;;;;;;;;;;5092271;28;20223;-67
2023/09/22 09:19:26;;;;;;;1.10;1.00;;;;;;;;;;5092139;28;20223;-67
2023/09/22 09:22:07;;;;;;;1.70;0.90;;;;;;;;;;5092913;28;20608;-67
2023/09/22 09:24:35;;;;;;;2.47;0.93;;;;;;;;;;5091385;28;20195;-67
2023/09/22 09:27:02;;;;;;;1.23;0.82;;;;;;;;;;5091156;28;20601;-67
2023/09/22 09:29:32;;;;;;;0.93;0.82;;;;;;;;;;5091967;28;20204;-67
2023/09/22 09:32:00;;;;;;;1.10;0.98;;;;;;;;;;5091558;28;20203;-67
2023/09/22 09:34:39;;;;;;;0.93;0.80;;;;;;;;;;5091562;28;20733;-67
2023/09/22 09:37:13;;;;;;;1.65;0.70;;;;;;;;;;5091629;28;20196;-67
2023/09/22 09:39:47;;;;;;;1.20;0.93;;;;;;;;;;5090440;28;20214;-67
2023/09/22 09:42:17;;;;;;;1.55;0.90;;;;;;;;;;5089595;28;20562;-67
2023/09/22 09:44:49;;;;;;;1.05;0.85;;;;;;;;;;5090079;28;20436;-67
2023/09/22 09:47:19;;;;;;;1.10;1.00;;;;;;;;;;5090660;28;20234;-67
2023/09/22 09:49:48;;;;;;;1.20;0.80;;;;;;;;;;5090378;28;20204;-67
2023/09/22 09:52:16;;;;;;;0.82;0.80;;;;;;;;;;5090253;28;20203;-67
2023/09/22 09:54:46;;;;;;;1.50;0.90;;;;;;;;;;5090658;28;20654;-67
2023/09/22 09:57:14;;;;;;;2.63;1.00;;;;;;;;;;5090646;28;20648;-67
2023/09/22 09:59:42;;;;;;;1.50;0.90;;;;;;;;;;5080271;28;20204;-67
2023/09/22 10:02:12;;;;;;;2.30;0.90;;;;;;;;;;5076799;28;20282;-67
2023/09/22 10:04:40;;;;;;;1.05;0.90;;;;;;;;;;5077577;28;20295;-67
2023/09/22 10:07:08;;;;;;;1.10;0.85;;;;;;;;;;5076588;28;20219;-67
2023/09/22 10:09:36;;;;;;;2.40;0.98;;;;;;;;;;5076940;28;20212;-67
2023/09/22 10:12:04;;;;;;;1.80;1.10;;;;;;;;;;5076467;28;20265;-67
2023/09/22 10:14:44;;;;;;;3.83;1.02;;;;;;;;;;5075459;28;20212;-67
2023/09/22 10:17:22;;;;;;;1.83;1.10;;;;;;;;;;5077627;28;20263;-66
2023/09/22 10:19:50;;;;;;;1.70;0.80;;;;;;;;;;5076911;28;20200;-66
2023/09/22 10:22:17;;;;;;;1.02;0.90;;;;;;;;;;5076863;28;20279;-66
2023/09/22 10:24:44;;;;;;;1.75;1.00;;;;;;;;;;5076560;28;20642;-67
2023/09/22 10:27:13;;;;;;;0.95;0.80;;;;;;;;;;5075532;28;20259;-66
2023/09/22 10:29:42;;;;;;;1.27;0.82;;;;;;;;;;5076275;28;20293;-66
2023/09/22 10:32:23;;;;;;;1.40;0.95;;;;;;;;;;5075081;28;20730;-66
2023/09/22 10:34:51;;;;;;;1.70;0.85;;;;;;;;;;5075168;28;20196;-66
2023/09/22 10:37:19;;;;;;;1.73;0.93;;;;;;;;;;5075354;28;20200;-66
2023/09/22 10:39:53;;;;;;;0.88;0.68;;;;;;;;;;5074508;28;20197;-66
2023/09/22 10:42:21;;;;;;;1.15;1.00;;;;;;;;;;5075624;28;20302;-66
2023/09/22 10:44:59;;;;;;;1.00;0.90;;;;;;;;;;5075881;28;20609;-66
2023/09/22 10:47:37;;;;;;;1.05;0.90;;;;;;;;;;5075777;28;20228;-66
2023/09/22 10:50:17;;;;;;;0.93;0.80;;;;;;;;;;5076302;28;20196;-66
2023/09/22 10:52:52;;;;;;;1.08;0.88;;;;;;;;;;5075577;28;20220;-66
2023/09/22 10:55:34;;;;;;;1.52;0.90;;;;;;;;;;5075899;28;20204;-66
2023/09/22 10:58:03;;;;;;;0.98;0.90;;;;;;;;;;5075556;28;20231;-66
2023/09/22 11:00:32;;;;;;;1.73;0.77;;;;;;;;;;5075692;28;20204;-66
2023/09/22 11:03:06;;;;;;;1.00;0.80;;;;;;;;;;5075793;28;20300;-66
2023/09/22 11:05:34;;;;;;;1.88;0.90;;;;;;;;;;5076436;28;20266;-66
2023/09/22 11:08:02;;;;;;;1.50;1.00;;;;;;;;;;5075819;28;20220;-66
2023/09/22 11:10:31;;;;;;;1.25;0.90;;;;;;;;;;5074962;28;20661;-66
2023/09/22 11:13:00;;;;;;;1.33;1.05;;;;;;;;;;5076188;28;20204;-66
2023/09/22 11:15:27;;;;;;;1.35;1.10;;;;;;;;;;5075282;28;20204;-66
2023/09/22 11:17:55;;;;;;;1.90;1.00;;;;;;;;;;5074978;28;20626;-66
2023/09/22 11:20:28;;;;;;;1.05;0.80;;;;;;;;;;5075530;28;20312;-66
2023/09/22 11:22:56;;;;;;;1.23;0.90;;;;;;;;;;5074963;28;20200;-66
2023/09/22 11:25:24;;;;;;;1.27;0.90;;;;;;;;;;5074586;28;20240;-66
2023/09/22 11:27:52;;;;;;;1.13;0.93;;;;;;;;;;5073905;28;20227;-66
2023/09/22 11:30:25;;;;;;;1.77;0.88;;;;;;;;;;5075003;28;20582;-66
2023/09/22 11:32:53;;;;;;;2.33;1.00;;;;;;;;;;5074386;28;20204;-66
2023/09/22 11:35:41;;;;;;;1.77;1.20;;;;;;;;;;5074010;28;20596;-66
2023/09/22 11:38:27;;;;;;;2.05;1.10;;;;;;;;;;5069397;28;20231;-66
2023/09/22 11:41:03;;;;;;;1.38;1.10;;;;;;;;;;5074769;28;20211;-66
2023/09/22 11:43:31;;;;;;;1.45;1.13;;;;;;;;;;5075040;28;20254;-66
2023/09/22 11:46:08;;;;;;;1.35;1.08;;;;;;;;;;5074490;28;20262;-66
2023/09/22 11:48:51;;;;;;;1.10;1.00;;;;;;;;;;5075606;28;20259;-66
2023/09/22 11:51:19;;;;;;;1.52;1.10;;;;;;;;;;5074337;28;20204;-67
2023/09/22 11:53:48;;;;;;;1.08;1.00;;;;;;;;;;5073922;28;20261;-66
2023/09/22 11:56:16;;;;;;;1.25;1.15;;;;;;;;;;5073200;28;20551;-66
2023/09/22 11:58:44;;;;;;;1.10;1.00;;;;;;;;;;5073920;28;20242;-66
2023/09/22 12:01:11;;;;;;;1.30;1.17;;;;;;;;;;5074031;28;20211;-66
2023/09/22 12:03:39;;;;;;;1.38;1.27;;;;;;;;;;5074015;28;20484;-66
2023/09/22 12:06:07;;;;;;;1.17;1.08;;;;;;;;;;5074703;28;20299;-66
2023/09/22 12:08:34;;;;;;;1.77;1.38;;;;;;;;;;5074425;28;20228;-66
2023/09/22 12:11:03;;;;;;;1.73;1.30;;;;;;;;;;5075222;28;20303;-66
2023/09/22 12:13:30;;;;;;;4.53;1.83;;;;;;;;;;5074506;28;20212;-66
2023/09/22 12:15:59;;;;;;;2.75;1.70;;;;;;;;;;5074123;28;20589;-66
2023/09/22 12:18:27;;;;;;;3.22;1.77;;;;;;;;;;5074103;28;20211;-66
2023/09/22 12:20:56;;;;;;;3.60;1.77;;;;;;;;;;5074010;28;20837;-66
2023/09/22 12:23:23;;;;;;;3.95;1.80;;;;;;;;;;5073301;28;20204;-66
2023/09/22 12:25:52;;;;;;;3.42;1.90;;;;;;;;;;5074902;28;20495;-66
2023/09/22 12:28:21;;;;;;;2.05;1.40;;;;;;;;;;5073346;28;20216;-66
2023/09/22 12:30:49;;;;;;;3.25;1.73;;;;;;;;;;5074185;28;20242;-66
2023/09/22 12:33:17;;;;;;;2.17;1.42;;;;;;;;;;5073752;28;20618;-68
2023/09/22 12:35:44;;;;;;;3.15;1.65;;;;;;;;;;5074859;28;20307;-66
2023/09/22 12:38:11;;;;;;;2.05;1.58;;;;;;;;;;5076631;28;20291;-66
2023/09/22 12:40:39;;;;;;;3.72;1.42;;;;;;;;;;5074108;28;20304;-66
2023/09/22 12:43:07;;;;;;;5.53;1.70;;;;;;;;;;5074473;28;20211;-66
2023/09/22 12:45:36;;;;;;;1.75;1.30;;;;;;;;;;5074693;28;20236;-66
2023/09/22 12:48:04;;;;;;;1.45;1.30;;;;;;;;;;5073593;28;20632;-66
2023/09/22 12:50:31;;;;;;;2.08;1.25;;;;;;;;;;5073605;28;20684;-66
2023/09/22 23:06:04;;;;;;;0.98;0.88;;;;;;;;;;5102678;27;1613799;-65
2023/09/22 23:08:33;;;;;;;0.90;0.90;;;;;;;;;;5135756;28;20372;-66
2023/09/22 23:11:05;;;;;;;0.80;0.80;;;;;;;;;;5136018;27;20632;-66
2023/09/22 23:13:34;;;;;;;0.85;0.85;;;;;;;;;;5136005;27;20210;-65
2023/09/22 23:16:04;;;;;;;1.00;0.73;;;;;;;;;;5135694;28;20206;-66
2023/09/22 23:18:33;;;;;;;0.80;0.80;;;;;;;;;;5135811;28;20210;-66
2023/09/22 23:21:00;;;;;;;0.80;0.70;;;;;;;;;;5135359;28;20213;-66
2023/09/22 23:23:30;;;;;;;0.98;0.80;;;;;;;;;;5135708;28;20336;-66
2023/09/22 23:25:58;;;;;;;0.75;0.60;;;;;;;;;;5135769;28;20230;-66
2023/09/22 23:28:26;;;;;;;0.82;0.70;;;;;;;;;;5135809;27;20260;-66
2023/09/22 23:30:54;;;;;;;0.70;0.70;;;;;;;;;;5135488;28;20213;-66
2023/09/22 23:33:23;;;;;;;0.70;0.70;;;;;;;;;;5135584;28;20503;-66
2023/09/22 23:35:51;;;;;;;1.17;0.80;;;;;;;;;;5135569;27;20263;-66
2023/09/22 23:38:21;;;;;;;1.02;0.90;;;;;;;;;;5135157;28;20572;-67
2023/09/22 23:40:51;;;;;;;1.60;0.80;;;;;;;;;;5135342;27;20241;-66
2023/09/22 23:43:26;;;;;;;0.63;0.63;;;;;;;;;;5135278;28;20208;-66
2023/09/22 23:45:55;;;;;;;0.82;0.70;;;;;;;;;;5135543;27;20866;-65
2023/09/22 23:48:23;;;;;;;1.17;0.77;;;;;;;;;;5135378;28;20225;-65
2023/09/22 23:50:56;;;;;;;0.80;0.80;;;;;;;;;;5135340;28;20214;-66
2023/09/22 23:53:25;;;;;;;1.33;0.80;;;;;;;;;;5135224;27;20547;-66
2023/09/22 23:55:55;;;;;;;1.20;0.80;;;;;;;;;;5134932;28;20198;-65
2023/09/22 23:58:23;;;;;;;0.77;0.70;;;;;;;;;;5135102;28;20302;-69
